Portada
METAR-TAF:

METAR-TAF

Aeropuertos :

Audubon County Airport

Audubon, Iowa, Estados Unidos

latitud: 41-42-04N, longitud: 094-55-13W, altitud: 392 m

Observación

El informe se hizo hace 18 minutos, a las 06:15 UTC
Viento calma
Temperatura 14°C
Humedad 82%
Presión 1025 hPa
Visibilidad: 16.1 km
Cielo nuboso a una altura de 7000 ft
Cielo cubierto a una altura de 11000 ft

METAR: KADU 310615Z AUTO 00000KT 10SM BKN070 OVC110 14/11 A3026 RMK AO2

Hora: 01:33 (06:33 UTC)


TAF: falta

Observaciones y pronósticos meteorológicos de más de 4000 aeropuertos (mensajes METAR y TAF).

Los puntos amarillos y rojos representan las estaciones disponibles.

Ponga el ratón en el punto deseado para ver el nombre de la estación.

Haga clic para ver las observaciones y los pronósticos meteorológicos.

Para cambiar el mapa : haga clic en los botones verdes con una cruz de color negro para hacer un zoom, en el botón verde con un guión para alejar o en las flechas verdes para mapas adyacentes.


METAR-TAF: